createdAt,value
2018-06-10T00:00:27.999Z,25.40
2018-06-10T00:02:56.670Z,25.30
2018-06-10T00:07:53.672Z,25.30
2018-06-10T00:10:22.389Z,25.30
2018-06-10T00:12:51.053Z,25.30
2018-06-10T00:15:19.837Z,25.20
2018-06-10T00:17:48.552Z,25.20
2018-06-10T00:20:17.420Z,25.20
2018-06-10T00:22:46.116Z,25.20
2018-06-10T00:25:14.752Z,25.20
2018-06-10T00:30:12.489Z,25.10
2018-06-10T00:32:41.176Z,25.10
2018-06-10T00:35:09.816Z,25.10
2018-06-10T00:37:38.507Z,25.00
2018-06-10T00:42:41.606Z,24.90
2018-06-10T00:45:11.070Z,24.90
2018-06-10T00:47:39.678Z,24.80
2018-06-10T00:50:08.478Z,24.80
2018-06-10T00:52:37.112Z,24.80
2018-06-10T00:55:05.812Z,24.70
2018-06-10T00:57:34.553Z,24.60
2018-06-10T01:00:03.221Z,24.70
2018-06-10T01:02:31.928Z,24.60
2018-06-10T01:05:00.614Z,24.60
2018-06-10T01:07:29.265Z,24.60
2018-06-10T01:09:57.969Z,24.60
2018-06-10T01:12:26.684Z,24.60
2018-06-10T01:14:55.346Z,24.60
2018-06-10T01:17:24.033Z,24.50
2018-06-10T01:27:17.726Z,24.50
2018-06-10T01:29:46.407Z,24.50
2018-06-10T01:32:15.950Z,24.50
2018-06-10T01:34:44.598Z,24.50
2018-06-10T01:37:13.945Z,24.50
2018-06-10T01:39:42.618Z,24.40
2018-06-10T01:42:12.416Z,24.40
2018-06-10T01:44:41.147Z,24.40
2018-06-10T01:47:09.832Z,24.40
2018-06-10T01:49:38.535Z,24.40
2018-06-10T01:52:07.777Z,24.40
2018-06-10T01:54:36.473Z,24.40
2018-06-10T01:57:05.157Z,24.30
2018-06-10T01:59:33.810Z,24.40
2018-06-10T02:02:02.559Z,24.40
2018-06-10T02:04:31.826Z,24.30
2018-06-10T02:07:00.513Z,24.30
2018-06-10T02:09:29.210Z,24.30
2018-06-10T02:11:57.844Z,24.20
2018-06-10T02:14:26.537Z,24.10
2018-06-10T02:16:55.244Z,24.00
2018-06-10T02:19:23.918Z,24.10
2018-06-10T02:21:52.605Z,24.10
2018-06-10T02:24:21.233Z,24.10
2018-06-10T02:26:49.923Z,24.10
2018-06-10T02:29:18.573Z,24.10
2018-06-10T02:31:47.759Z,24.10
2018-06-10T02:34:16.439Z,24.10
2018-06-10T02:36:45.156Z,24.10
2018-06-10T02:39:13.784Z,24.00
2018-06-10T02:41:42.389Z,23.90
2018-06-10T02:44:11.097Z,23.80
2018-06-10T02:46:39.742Z,23.70
2018-06-10T02:49:08.426Z,23.60
2018-06-10T02:54:05.718Z,23.40
2018-06-10T02:56:34.417Z,23.40
2018-06-10T02:59:03.101Z,23.40
2018-06-10T03:01:31.782Z,23.40
2018-06-10T03:04:00.437Z,23.40
2018-06-10T03:06:29.141Z,23.40
2018-06-10T03:08:58.542Z,23.30
2018-06-10T03:11:27.253Z,23.20
2018-06-10T03:13:56.087Z,23.10
2018-06-10T03:16:24.733Z,23.20
2018-06-10T03:18:53.484Z,23.30
2018-06-10T03:21:22.172Z,23.30
2018-06-10T03:23:50.852Z,23.30
2018-06-10T03:26:19.502Z,23.20
2018-06-10T03:28:48.226Z,23.20
2018-06-10T03:31:16.913Z,23.20
2018-06-10T03:33:45.639Z,23.20
2018-06-10T03:36:14.346Z,23.30
2018-06-10T03:38:43.046Z,23.30
2018-06-10T03:41:16.492Z,23.30
2018-06-10T03:43:45.168Z,23.40
2018-06-10T03:46:13.927Z,23.50
2018-06-10T03:51:10.853Z,23.50
2018-06-10T03:53:39.517Z,23.60
2018-06-10T03:56:08.252Z,23.60
2018-06-10T03:58:36.902Z,23.70
2018-06-10T04:01:05.605Z,23.70
2018-06-10T04:03:34.286Z,23.80
2018-06-10T04:06:05.834Z,23.80
2018-06-10T04:08:34.561Z,23.80
2018-06-10T04:11:03.285Z,23.80
2018-06-10T04:13:31.979Z,23.80
2018-06-10T04:16:00.729Z,23.80
2018-06-10T04:18:29.459Z,23.80
2018-06-10T04:20:58.224Z,23.90
2018-06-10T04:23:26.876Z,23.80
2018-06-10T04:25:55.544Z,23.90
2018-06-10T04:28:24.201Z,23.80
2018-06-10T04:30:53.817Z,23.80
2018-06-10T04:33:22.527Z,23.90
2018-06-10T04:35:51.203Z,23.90
2018-06-10T04:38:20.209Z,24.00
2018-06-10T04:40:48.868Z,24.00
2018-06-10T04:43:17.572Z,23.90
2018-06-10T04:45:46.260Z,24.00
2018-06-10T04:48:14.945Z,24.00
2018-06-10T04:50:43.580Z,24.00
2018-06-10T04:55:41.239Z,24.10
2018-06-10T04:58:09.885Z,24.10
2018-06-10T05:00:38.553Z,24.10
2018-06-10T05:03:07.288Z,24.20
2018-06-10T05:05:36.038Z,24.20
2018-06-10T05:08:04.738Z,24.10
2018-06-10T05:10:33.426Z,24.20
2018-06-10T05:13:02.141Z,24.20
2018-06-10T05:15:30.838Z,24.20
2018-06-10T05:20:27.838Z,24.20
2018-06-10T05:22:56.496Z,24.30
2018-06-10T05:27:53.505Z,24.40
2018-06-10T05:30:22.180Z,24.40
2018-06-10T05:32:50.821Z,24.40
2018-06-10T05:35:19.448Z,24.50
2018-06-10T05:37:48.148Z,24.50
2018-06-10T05:40:16.808Z,24.60
2018-06-10T05:42:45.727Z,24.70
2018-06-10T05:45:14.396Z,24.70
2018-06-10T05:47:43.401Z,24.80
2018-06-10T05:50:12.090Z,24.80
2018-06-10T05:52:40.730Z,24.90
2018-06-10T06:00:07.208Z,25.00
2018-06-10T06:02:35.928Z,25.00
2018-06-10T06:05:05.157Z,25.00
2018-06-10T06:07:33.841Z,25.00
2018-06-10T06:10:02.470Z,25.00
2018-06-10T06:12:31.530Z,25.10
2018-06-10T06:15:00.754Z,25.10
2018-06-10T06:17:29.429Z,25.10
2018-06-10T06:19:58.110Z,25.20
2018-06-10T06:22:26.765Z,25.20
2018-06-10T06:24:56.663Z,25.30
2018-06-10T06:27:25.456Z,25.30
2018-06-10T06:29:54.073Z,25.20
2018-06-10T06:32:22.952Z,25.20
2018-06-10T06:34:51.642Z,25.30
2018-06-10T06:37:20.318Z,25.30
2018-06-10T06:39:49.751Z,25.30
2018-06-10T06:42:18.416Z,25.40
2018-06-10T06:44:47.196Z,25.50
2018-06-10T06:47:15.890Z,25.50
2018-06-10T06:49:44.601Z,25.60
2018-06-10T06:52:13.274Z,25.60
2018-06-10T06:54:41.952Z,25.70
2018-06-10T06:57:10.641Z,25.70
2018-06-10T06:59:39.329Z,25.80
2018-06-10T07:02:08.077Z,25.80
2018-06-10T07:04:36.806Z,25.90
2018-06-10T07:07:05.960Z,26.00
2018-06-10T07:09:34.633Z,26.00
2018-06-10T07:12:04.016Z,26.10
2018-06-10T07:14:32.747Z,26.10
2018-06-10T07:17:01.744Z,26.10
2018-06-10T07:19:30.674Z,26.20
2018-06-10T07:21:59.351Z,26.20
2018-06-10T07:24:28.873Z,26.20
2018-06-10T07:26:57.564Z,26.30
2018-06-10T07:29:26.258Z,26.30
2018-06-10T07:31:54.940Z,26.30
2018-06-10T07:34:23.642Z,26.30
2018-06-10T07:36:52.687Z,26.30
2018-06-10T07:39:21.465Z,26.30
2018-06-10T07:41:50.181Z,26.30
2018-06-10T07:44:18.950Z,26.30
2018-06-10T07:46:47.640Z,26.30
2018-06-10T07:49:16.691Z,26.20
2018-06-10T07:51:45.400Z,26.20
2018-06-10T07:54:14.040Z,26.30
2018-06-10T07:56:42.748Z,26.30
2018-06-10T07:59:11.516Z,26.40
2018-06-10T08:01:40.258Z,26.50
2018-06-10T08:04:08.932Z,26.60
2018-06-10T08:06:37.562Z,26.70
2018-06-10T08:09:07.750Z,26.70
2018-06-10T08:11:36.549Z,26.70
2018-06-10T08:14:05.320Z,26.80
2018-06-10T08:19:02.374Z,26.80
2018-06-10T08:21:31.320Z,26.90
2018-06-10T08:24:00.057Z,26.90
2018-06-10T08:26:28.807Z,26.90
2018-06-10T08:28:57.522Z,27.00
2018-06-10T08:33:54.583Z,27.00
2018-06-10T08:38:51.524Z,27.10
2018-06-10T08:41:20.273Z,27.20
2018-06-10T08:43:48.947Z,27.30
2018-06-10T08:46:17.678Z,27.30
2018-06-10T08:48:46.380Z,27.30
2018-06-10T08:51:15.051Z,27.40
2018-06-10T08:53:43.809Z,27.40
2018-06-10T08:56:12.488Z,27.50
2018-06-10T08:58:41.169Z,27.50
2018-06-10T09:01:10.781Z,27.60
2018-06-10T09:03:39.488Z,27.60
2018-06-10T09:06:08.174Z,27.70
2018-06-10T09:08:36.956Z,27.80
2018-06-10T09:11:05.660Z,27.90
2018-06-10T09:13:34.427Z,27.80
2018-06-10T09:16:03.098Z,27.90
2018-06-10T09:18:36.330Z,27.90
2018-06-10T09:21:05.013Z,27.90
2018-06-10T09:23:34.280Z,27.90
2018-06-10T09:26:03.073Z,28.00
2018-06-10T09:28:32.893Z,28.10
2018-06-10T09:31:01.581Z,28.10
2018-06-10T09:33:30.222Z,28.20
2018-06-10T09:35:58.991Z,28.30
2018-06-10T09:38:27.657Z,28.30
2018-06-10T09:40:56.394Z,28.30
2018-06-10T09:45:53.386Z,28.50
2018-06-10T09:50:50.381Z,28.60
2018-06-10T09:53:19.028Z,28.80
2018-06-10T09:55:47.691Z,28.90
2018-06-10T09:58:16.389Z,29.10
2018-06-10T10:00:45.053Z,29.20
2018-06-10T10:03:14.285Z,29.30
2018-06-10T10:05:43.002Z,29.40
2018-06-10T10:08:11.733Z,29.40
2018-06-10T10:13:10.553Z,29.50
2018-06-10T10:15:39.281Z,29.40
2018-06-10T10:18:08.097Z,29.30
2018-06-10T10:20:36.803Z,29.20
2018-06-10T10:23:12.095Z,29.00
2018-06-10T10:25:41.377Z,29.00
2018-06-10T10:28:10.124Z,29.00
2018-06-10T10:30:38.805Z,28.90
2018-06-10T10:33:07.494Z,28.80
2018-06-10T10:35:36.693Z,28.90
2018-06-10T10:38:05.379Z,29.00
2018-06-10T10:40:34.775Z,29.00
2018-06-10T10:43:03.453Z,29.00
2018-06-10T10:45:32.119Z,29.00
2018-06-10T10:48:00.809Z,29.10
2018-06-10T10:50:29.725Z,29.10
2018-06-10T10:52:58.409Z,29.20
2018-06-10T10:55:27.107Z,29.30
2018-06-10T10:57:55.735Z,29.40
2018-06-10T11:00:24.392Z,29.40
2018-06-10T11:02:53.087Z,29.50
2018-06-10T11:05:21.816Z,29.50
2018-06-10T11:07:50.511Z,29.60
2018-06-10T11:10:20.061Z,29.70
2018-06-10T11:15:17.072Z,30.10
2018-06-10T11:17:45.757Z,30.30
2018-06-10T11:20:14.447Z,30.50
2018-06-10T11:22:43.152Z,30.70
2018-06-10T11:25:12.425Z,30.90
2018-06-10T11:27:41.093Z,30.90
2018-06-10T11:30:09.876Z,31.00
2018-06-10T11:32:38.517Z,31.00
2018-06-10T11:35:07.289Z,31.00
2018-06-10T11:37:36.034Z,31.00
2018-06-10T11:40:04.759Z,31.00
2018-06-10T11:42:33.847Z,31.00
2018-06-10T11:45:03.257Z,30.90
2018-06-10T11:47:32.422Z,30.80
2018-06-10T11:50:01.118Z,30.60
2018-06-10T11:52:29.877Z,30.40
2018-06-10T11:54:58.618Z,30.30
2018-06-10T11:57:27.762Z,30.10
2018-06-10T11:59:56.516Z,29.90
2018-06-10T12:02:25.235Z,29.80
2018-06-10T12:04:53.902Z,29.60
2018-06-10T12:07:22.864Z,29.50
2018-06-10T12:09:52.009Z,29.40
2018-06-10T12:12:20.700Z,29.30
2018-06-10T12:14:49.411Z,29.20
2018-06-10T12:17:18.410Z,29.20
2018-06-10T12:19:47.064Z,29.10
2018-06-10T12:22:15.775Z,29.00
2018-06-10T12:27:12.799Z,29.00
2018-06-10T12:29:41.532Z,29.00
2018-06-10T12:32:11.461Z,29.00
2018-06-10T12:34:40.169Z,29.00
2018-06-10T12:37:08.949Z,29.00
2018-06-10T12:39:38.274Z,29.00
2018-06-10T12:42:07.017Z,29.00
2018-06-10T12:44:35.744Z,29.00
2018-06-10T12:47:04.616Z,29.00
2018-06-10T12:49:33.858Z,28.90
2018-06-10T12:52:02.552Z,28.90
2018-06-10T12:54:31.300Z,29.00
2018-06-10T12:57:00.146Z,29.00
2018-06-10T12:59:28.794Z,29.10
2018-06-10T13:01:57.553Z,29.10
2018-06-10T13:04:26.298Z,29.20
2018-06-10T13:06:55.003Z,29.10
2018-06-10T13:09:23.707Z,29.20
2018-06-10T13:11:52.415Z,29.20
2018-06-10T13:14:21.114Z,29.30
2018-06-10T13:16:49.851Z,29.40
2018-06-10T13:19:19.332Z,29.50
2018-06-10T13:21:48.048Z,29.60
2018-06-10T13:24:16.756Z,29.60
2018-06-10T13:26:45.430Z,29.60
2018-06-10T13:29:14.108Z,29.60
2018-06-10T13:34:11.133Z,29.40
2018-06-10T13:36:40.420Z,29.30
2018-06-10T13:39:09.316Z,29.40
2018-06-10T13:41:38.065Z,29.40
2018-06-10T13:44:06.758Z,29.30
2018-06-10T13:46:35.409Z,29.40
2018-06-10T13:51:33.221Z,29.30
2018-06-10T13:56:30.313Z,29.60
2018-06-10T13:58:59.131Z,29.70
2018-06-10T14:01:28.597Z,29.70
2018-06-10T14:03:58.150Z,29.70
2018-06-10T14:06:26.794Z,29.70
2018-06-10T14:08:55.479Z,29.70
2018-06-10T14:11:24.203Z,29.70
2018-06-10T14:13:52.942Z,29.80
2018-06-10T14:16:21.645Z,29.70
2018-06-10T14:18:50.346Z,29.70
2018-06-10T14:21:19.140Z,29.70
2018-06-10T14:23:47.806Z,29.80
2018-06-10T14:26:16.527Z,29.80
2018-06-10T14:28:45.246Z,29.80
2018-06-10T14:33:42.334Z,29.70
2018-06-10T14:36:11.041Z,29.70
2018-06-10T14:38:39.741Z,29.70
2018-06-10T14:41:08.620Z,29.70
2018-06-10T14:43:37.341Z,29.70
2018-06-10T14:48:34.492Z,29.70
2018-06-10T14:51:03.131Z,29.70
2018-06-10T14:53:31.813Z,29.80
2018-06-10T14:56:00.494Z,29.90
2018-06-10T14:58:29.201Z,29.90
2018-06-10T15:00:57.901Z,30.00
2018-06-10T15:03:26.534Z,30.20
2018-06-10T15:05:55.309Z,30.60
2018-06-10T15:08:24.011Z,30.90
2018-06-10T15:10:52.714Z,31.20
2018-06-10T15:13:21.414Z,31.50
2018-06-10T15:15:50.303Z,31.90
2018-06-10T15:18:19.015Z,32.20
2018-06-10T15:20:47.866Z,32.50
2018-06-10T15:23:16.574Z,32.70
2018-06-10T15:28:13.609Z,33.00
2018-06-10T15:30:42.273Z,33.10
2018-06-10T15:33:10.962Z,33.20
2018-06-10T15:35:39.721Z,33.20
2018-06-10T15:38:08.485Z,33.20
2018-06-10T15:40:37.194Z,33.30
2018-06-10T15:43:06.679Z,33.40
2018-06-10T15:45:35.705Z,33.30
2018-06-10T15:48:04.561Z,33.20
2018-06-10T15:50:33.250Z,33.10
2018-06-10T15:53:01.989Z,32.90
2018-06-10T15:55:30.657Z,32.80
2018-06-10T15:57:59.382Z,32.70
2018-06-10T16:00:28.050Z,32.50
2018-06-10T16:02:56.870Z,32.30
2018-06-10T16:05:25.673Z,32.10
2018-06-10T16:07:54.420Z,32.00
2018-06-10T16:10:23.128Z,31.70
2018-06-10T16:12:51.824Z,31.60
2018-06-10T16:17:49.048Z,31.30
2018-06-10T16:20:17.754Z,31.10
2018-06-10T16:22:46.445Z,31.00
2018-06-10T16:25:15.237Z,30.90
2018-06-10T16:27:43.993Z,30.70
2018-06-10T16:30:12.788Z,30.70
2018-06-10T16:32:41.537Z,30.60
2018-06-10T16:37:38.587Z,30.60
2018-06-10T16:42:35.758Z,30.40
2018-06-10T16:45:04.498Z,30.30
2018-06-10T16:47:33.269Z,30.30
2018-06-10T16:50:01.974Z,30.20
2018-06-10T16:52:30.681Z,30.20
2018-06-10T16:55:06.174Z,30.20
2018-06-10T16:57:34.883Z,30.20
2018-06-10T17:00:03.678Z,30.10
2018-06-10T17:02:32.365Z,30.10
2018-06-10T17:05:01.122Z,30.00
2018-06-10T17:07:29.798Z,29.90
2018-06-10T17:09:58.472Z,30.00
2018-06-10T17:12:27.201Z,29.90
2018-06-10T17:14:55.911Z,29.90
2018-06-10T17:17:25.331Z,29.90
2018-06-10T17:19:53.993Z,29.90
2018-06-10T17:22:22.673Z,29.80
2018-06-10T17:24:58.252Z,29.80
2018-06-10T17:27:27.033Z,29.80
2018-06-10T17:29:55.823Z,29.90
2018-06-10T17:32:24.581Z,30.00
2018-06-10T17:34:53.347Z,30.20
2018-06-10T17:37:22.103Z,30.30
2018-06-10T17:39:50.886Z,30.40
2018-06-10T17:42:19.600Z,30.40
2018-06-10T17:47:16.677Z,30.50
2018-06-10T17:49:45.362Z,30.50
2018-06-10T17:52:14.149Z,30.60
2018-06-10T17:54:42.892Z,30.60
2018-06-10T17:57:11.599Z,30.70
2018-06-10T17:59:40.353Z,30.70
2018-06-10T18:02:09.070Z,30.70
2018-06-10T18:04:37.785Z,30.70
2018-06-10T18:07:06.564Z,30.60
2018-06-10T18:09:35.243Z,30.50
2018-06-10T18:14:32.222Z,30.30
2018-06-10T18:17:05.172Z,30.20
2018-06-10T18:19:33.933Z,30.20
2018-06-10T18:22:02.686Z,30.10
2018-06-10T18:24:31.489Z,30.00
2018-06-10T18:27:00.270Z,30.00
2018-06-10T18:29:29.018Z,29.90
2018-06-10T18:31:57.774Z,29.90
2018-06-10T18:34:26.557Z,29.80
2018-06-10T18:36:55.315Z,29.80
2018-06-10T18:39:23.970Z,29.70
2018-06-10T18:41:52.674Z,29.60
2018-06-10T18:46:49.719Z,29.50
2018-06-10T18:49:18.446Z,29.40
2018-06-10T18:51:47.517Z,29.40
2018-06-10T18:54:16.222Z,29.30
2018-06-10T18:59:13.291Z,29.20
2018-06-10T19:01:42.021Z,29.20
2018-06-10T19:04:10.766Z,29.10
2018-06-10T19:06:39.532Z,29.10
2018-06-10T19:09:09.385Z,29.00
2018-06-10T19:11:38.137Z,29.00
2018-06-10T19:16:35.536Z,28.90
2018-06-10T19:19:04.317Z,28.90
2018-06-10T19:21:33.764Z,28.80
2018-06-10T19:24:02.542Z,28.80
2018-06-10T19:26:31.317Z,28.80
2018-06-10T19:29:00.039Z,28.70
2018-06-10T19:31:28.762Z,28.70
2018-06-10T19:33:57.674Z,28.60
2018-06-10T19:36:26.366Z,28.60
2018-06-10T19:38:55.109Z,28.50
2018-06-10T19:41:23.865Z,28.50
2018-06-10T19:43:52.602Z,28.50
2018-06-10T19:46:21.268Z,28.40
2018-06-10T19:48:50.063Z,28.30
2018-06-10T19:51:18.841Z,28.30
2018-06-10T19:53:47.872Z,28.30
2018-06-10T19:56:16.615Z,28.30
2018-06-10T19:58:45.389Z,28.30
2018-06-10T20:01:14.146Z,28.20
2018-06-10T20:03:43.133Z,28.20
2018-06-10T20:08:40.196Z,28.20
2018-06-10T20:13:37.852Z,28.10
2018-06-10T20:16:06.525Z,28.10
2018-06-10T20:18:35.823Z,28.10
2018-06-10T20:21:04.629Z,28.00
2018-06-10T20:23:33.377Z,28.00
2018-06-10T20:28:30.393Z,28.00
2018-06-10T20:30:59.455Z,28.00
2018-06-10T20:33:28.141Z,28.00
2018-06-10T20:35:57.567Z,27.90
2018-06-10T20:38:26.299Z,27.80
2018-06-10T20:40:55.042Z,27.60
2018-06-10T20:43:24.050Z,27.60
2018-06-10T20:48:21.223Z,27.40
2018-06-10T20:50:50.496Z,27.40
2018-06-10T20:53:19.225Z,27.30
2018-06-10T20:55:48.317Z,27.30
2018-06-10T21:00:46.986Z,27.30
2018-06-10T21:03:15.685Z,27.30
2018-06-10T21:05:44.428Z,27.40
2018-06-10T21:10:41.575Z,27.40
2018-06-10T21:13:10.338Z,27.40
2018-06-10T21:15:39.332Z,27.40
2018-06-10T21:18:08.041Z,27.40
2018-06-10T21:20:36.776Z,27.40
2018-06-10T21:23:05.504Z,27.40
2018-06-10T21:25:34.254Z,27.30
2018-06-10T21:28:03.429Z,27.20
2018-06-10T21:30:32.760Z,27.20
2018-06-10T21:33:01.439Z,27.10
2018-06-10T21:35:30.113Z,27.00
2018-06-10T21:37:58.844Z,27.00
2018-06-10T21:40:27.508Z,27.00
2018-06-10T21:42:56.152Z,27.00
2018-06-10T21:45:24.869Z,26.90
2018-06-10T21:47:53.634Z,26.70
2018-06-10T21:50:22.273Z,26.70
2018-06-10T21:52:50.934Z,26.60
2018-06-10T21:55:20.444Z,26.60
2018-06-10T21:57:49.162Z,26.40
2018-06-10T22:02:52.669Z,26.20
2018-06-10T22:05:21.591Z,26.30
2018-06-10T22:07:50.307Z,26.30
2018-06-10T22:10:18.994Z,26.40
2018-06-10T22:12:47.699Z,26.50
2018-06-10T22:15:16.369Z,26.50
2018-06-10T22:17:45.088Z,26.50
2018-06-10T22:20:14.461Z,26.40
2018-06-10T22:22:43.143Z,26.40
2018-06-10T22:25:11.814Z,26.20
2018-06-10T22:27:40.444Z,26.10
2018-06-10T22:30:09.145Z,26.00
2018-06-10T22:32:37.904Z,25.90
2018-06-10T22:35:06.576Z,25.80
2018-06-10T22:37:35.273Z,25.60
2018-06-10T22:40:04.022Z,25.60
2018-06-10T22:42:32.983Z,25.50
2018-06-10T22:45:01.638Z,25.40
2018-06-10T22:47:30.296Z,25.40
2018-06-10T22:49:59.660Z,25.40
2018-06-10T22:52:28.309Z,25.50
2018-06-10T22:54:57.004Z,25.50
2018-06-10T22:57:25.628Z,25.40
2018-06-10T22:59:54.301Z,25.40
2018-06-10T23:02:22.957Z,25.40
2018-06-10T23:04:52.456Z,25.50
2018-06-10T23:07:21.751Z,25.40
2018-06-10T23:12:25.245Z,25.50
2018-06-10T23:14:53.894Z,25.50
2018-06-10T23:17:22.671Z,25.50
2018-06-10T23:19:51.301Z,25.50
2018-06-10T23:22:19.994Z,25.50
2018-06-10T23:24:48.776Z,25.40
2018-06-10T23:27:17.477Z,25.20
2018-06-10T23:29:46.191Z,25.20
2018-06-10T23:32:14.864Z,25.30
2018-06-10T23:34:43.517Z,25.30
2018-06-10T23:39:40.887Z,25.30
2018-06-10T23:44:38.820Z,25.20
2018-06-10T23:47:07.582Z,25.20
2018-06-10T23:49:36.589Z,25.20
2018-06-10T23:52:05.245Z,25.30
2018-06-10T23:54:33.992Z,25.40
2018-06-10T23:57:02.625Z,25.40
2018-06-10T23:59:31.313Z,25.40
